sensor_id;sensor_type;location;lat;lon;timestamp;temperature;humidity
14144;DHT22;7152;48.348;10.980;2022-08-01T00:00:34;19.70;99.90
14144;DHT22;7152;48.348;10.980;2022-08-01T00:03:00;19.70;99.90
14144;DHT22;7152;48.348;10.980;2022-08-01T00:05:26;19.70;99.90
14144;DHT22;7152;48.348;10.980;2022-08-01T00:07:52;19.60;99.90
14144;DHT22;7152;48.348;10.980;2022-08-01T00:10:18;19.60;99.90
14144;DHT22;7152;48.348;10.980;2022-08-01T00:12:44;19.70;99.90
14144;DHT22;7152;48.348;10.980;2022-08-01T00:15:12;19.60;99.90
14144;DHT22;7152;48.348;10.980;2022-08-01T00:17:38;19.60;99.90
14144;DHT22;7152;48.348;10.980;2022-08-01T00:20:05;19.60;99.90
14144;DHT22;7152;48.348;10.980;2022-08-01T00:22:32;19.60;99.90
14144;DHT22;7152;48.348;10.980;2022-08-01T00:24:58;19.60;99.90
14144;DHT22;7152;48.348;10.980;2022-08-01T00:27:24;19.60;99.90
14144;DHT22;7152;48.348;10.980;2022-08-01T00:29:49;19.60;99.90
14144;DHT22;7152;48.348;10.980;2022-08-01T00:32:15;19.60;99.90
14144;DHT22;7152;48.348;10.980;2022-08-01T00:34:40;19.60;99.90
14144;DHT22;7152;48.348;10.980;2022-08-01T00:37:06;19.60;99.90
14144;DHT22;7152;48.348;10.980;2022-08-01T00:39:32;19.60;99.90
14144;DHT22;7152;48.348;10.980;2022-08-01T00:42:06;19.70;99.90
14144;DHT22;7152;48.348;10.980;2022-08-01T00:44:32;19.70;99.90
14144;DHT22;7152;48.348;10.980;2022-08-01T00:46:57;19.70;99.90
14144;DHT22;7152;48.348;10.980;2022-08-01T00:49:23;19.70;99.90
14144;DHT22;7152;48.348;10.980;2022-08-01T00:51:49;19.80;99.90
14144;DHT22;7152;48.348;10.980;2022-08-01T00:54:15;19.80;99.90
14144;DHT22;7152;48.348;10.980;2022-08-01T00:56:41;19.80;99.90
14144;DHT22;7152;48.348;10.980;2022-08-01T00:59:07;19.90;99.90
14144;DHT22;7152;48.348;10.980;2022-08-01T01:01:33;19.90;99.90
14144;DHT22;7152;48.348;10.980;2022-08-01T01:03:58;19.90;99.90
14144;DHT22;7152;48.348;10.980;2022-08-01T01:12:37;19.90;99.90
14144;DHT22;7152;48.348;10.980;2022-08-01T01:20:36;19.90;99.90
14144;DHT22;7152;48.348;10.980;2022-08-01T01:28:21;19.90;99.90
14144;DHT22;7152;48.348;10.980;2022-08-01T01:30:55;19.90;99.90
14144;DHT22;7152;48.348;10.980;2022-08-01T01:33:24;19.80;99.90
14144;DHT22;7152;48.348;10.980;2022-08-01T01:35:55;19.80;99.90
14144;DHT22;7152;48.348;10.980;2022-08-01T01:38:26;19.80;99.90
14144;DHT22;7152;48.348;10.980;2022-08-01T01:40:55;19.70;99.90
14144;DHT22;7152;48.348;10.980;2022-08-01T01:43:22;19.70;99.90
14144;DHT22;7152;48.348;10.980;2022-08-01T01:45:49;19.60;99.90
14144;DHT22;7152;48.348;10.980;2022-08-01T01:48:18;19.60;99.90
14144;DHT22;7152;48.348;10.980;2022-08-01T01:50:46;19.50;99.90
14144;DHT22;7152;48.348;10.980;2022-08-01T01:53:14;19.40;99.90
14144;DHT22;7152;48.348;10.980;2022-08-01T01:55:42;19.40;99.90
14144;DHT22;7152;48.348;10.980;2022-08-01T01:58:11;19.40;99.90
14144;DHT22;7152;48.348;10.980;2022-08-01T02:00:38;19.40;99.90
14144;DHT22;7152;48.348;10.980;2022-08-01T02:03:06;19.30;99.90
14144;DHT22;7152;48.348;10.980;2022-08-01T02:05:33;19.30;99.90
14144;DHT22;7152;48.348;10.980;2022-08-01T02:08:01;19.20;99.90
14144;DHT22;7152;48.348;10.980;2022-08-01T02:10:29;19.10;99.90
14144;DHT22;7152;48.348;10.980;2022-08-01T02:12:56;19.00;99.90
14144;DHT22;7152;48.348;10.980;2022-08-01T02:15:23;18.90;99.90
14144;DHT22;7152;48.348;10.980;2022-08-01T02:17:50;18.80;99.90
14144;DHT22;7152;48.348;10.980;2022-08-01T02:20:16;18.80;99.90
14144;DHT22;7152;48.348;10.980;2022-08-01T02:22:51;18.70;99.90
14144;DHT22;7152;48.348;10.980;2022-08-01T02:25:27;18.70;99.90
14144;DHT22;7152;48.348;10.980;2022-08-01T02:30:35;18.50;99.90
14144;DHT22;7152;48.348;10.980;2022-08-01T02:33:20;18.50;99.90
14144;DHT22;7152;48.348;10.980;2022-08-01T02:35:50;18.50;99.90
14144;DHT22;7152;48.348;10.980;2022-08-01T02:38:18;18.40;99.90
14144;DHT22;7152;48.348;10.980;2022-08-01T02:40:47;18.40;99.90
14144;DHT22;7152;48.348;10.980;2022-08-01T02:43:18;18.40;99.90
14144;DHT22;7152;48.348;10.980;2022-08-01T02:45:51;18.30;99.90
14144;DHT22;7152;48.348;10.980;2022-08-01T02:48:19;18.30;99.90
14144;DHT22;7152;48.348;10.980;2022-08-01T02:50:47;18.20;99.90
14144;DHT22;7152;48.348;10.980;2022-08-01T02:53:14;18.10;99.90
14144;DHT22;7152;48.348;10.980;2022-08-01T02:55:42;18.10;99.90
14144;DHT22;7152;48.348;10.980;2022-08-01T02:58:12;18.10;99.90
14144;DHT22;7152;48.348;10.980;2022-08-01T03:00:39;18.00;99.90
14144;DHT22;7152;48.348;10.980;2022-08-01T03:03:06;18.00;99.90
14144;DHT22;7152;48.348;10.980;2022-08-01T03:05:35;18.00;99.90
14144;DHT22;7152;48.348;10.980;2022-08-01T03:08:02;17.90;99.90
14144;DHT22;7152;48.348;10.980;2022-08-01T03:10:29;17.90;99.90
14144;DHT22;7152;48.348;10.980;2022-08-01T03:12:58;17.90;99.90
14144;DHT22;7152;48.348;10.980;2022-08-01T03:15:26;17.90;99.90
14144;DHT22;7152;48.348;10.980;2022-08-01T03:17:55;17.90;99.90
14144;DHT22;7152;48.348;10.980;2022-08-01T03:20:23;17.90;99.90
14144;DHT22;7152;48.348;10.980;2022-08-01T03:22:50;18.00;99.90
14144;DHT22;7152;48.348;10.980;2022-08-01T03:25:18;18.00;99.90
14144;DHT22;7152;48.348;10.980;2022-08-01T03:27:54;18.00;99.90
14144;DHT22;7152;48.348;10.980;2022-08-01T03:30:23;18.10;99.90
14144;DHT22;7152;48.348;10.980;2022-08-01T03:32:51;18.00;99.90
14144;DHT22;7152;48.348;10.980;2022-08-01T03:35:17;18.00;99.90
14144;DHT22;7152;48.348;10.980;2022-08-01T03:37:48;18.00;99.90
14144;DHT22;7152;48.348;10.980;2022-08-01T03:40:37;18.00;99.90
14144;DHT22;7152;48.348;10.980;2022-08-01T03:43:07;18.00;99.90
14144;DHT22;7152;48.348;10.980;2022-08-01T03:45:39;17.90;99.90
14144;DHT22;7152;48.348;10.980;2022-08-01T03:48:13;17.90;99.90
14144;DHT22;7152;48.348;10.980;2022-08-01T03:50:42;17.80;99.90
14144;DHT22;7152;48.348;10.980;2022-08-01T03:53:09;17.80;99.90
14144;DHT22;7152;48.348;10.980;2022-08-01T03:55:38;17.70;99.90
14144;DHT22;7152;48.348;10.980;2022-08-01T03:58:05;17.70;99.90
14144;DHT22;7152;48.348;10.980;2022-08-01T04:00:32;17.70;99.90
14144;DHT22;7152;48.348;10.980;2022-08-01T04:02:58;17.80;99.90
14144;DHT22;7152;48.348;10.980;2022-08-01T04:05:24;17.80;99.90
14144;DHT22;7152;48.348;10.980;2022-08-01T04:07:51;17.70;99.90
14144;DHT22;7152;48.348;10.980;2022-08-01T04:10:24;17.80;99.90
14144;DHT22;7152;48.348;10.980;2022-08-01T04:12:50;17.70;99.90
14144;DHT22;7152;48.348;10.980;2022-08-01T04:15:15;17.70;99.90
14144;DHT22;7152;48.348;10.980;2022-08-01T04:17:41;17.70;99.90
14144;DHT22;7152;48.348;10.980;2022-08-01T04:20:07;17.70;99.90
14144;DHT22;7152;48.348;10.980;2022-08-01T04:22:33;17.70;99.90
14144;DHT22;7152;48.348;10.980;2022-08-01T04:25:00;17.70;99.90
14144;DHT22;7152;48.348;10.980;2022-08-01T04:27:36;17.80;99.90
14144;DHT22;7152;48.348;10.980;2022-08-01T04:30:03;17.80;99.90
14144;DHT22;7152;48.348;10.980;2022-08-01T04:32:34;17.80;99.90
14144;DHT22;7152;48.348;10.980;2022-08-01T04:35:04;17.90;99.90
14144;DHT22;7152;48.348;10.980;2022-08-01T04:37:30;17.90;99.90
14144;DHT22;7152;48.348;10.980;2022-08-01T04:39:57;17.90;99.90
14144;DHT22;7152;48.348;10.980;2022-08-01T04:42:24;18.00;99.90
14144;DHT22;7152;48.348;10.980;2022-08-01T04:44:50;18.10;99.90
14144;DHT22;7152;48.348;10.980;2022-08-01T04:47:16;18.20;99.90
14144;DHT22;7152;48.348;10.980;2022-08-01T04:49:43;18.20;99.90
14144;DHT22;7152;48.348;10.980;2022-08-01T04:52:11;18.30;99.90
14144;DHT22;7152;48.348;10.980;2022-08-01T04:54:37;18.30;99.90
14144;DHT22;7152;48.348;10.980;2022-08-01T04:57:04;18.40;99.90
14144;DHT22;7152;48.348;10.980;2022-08-01T04:59:31;18.40;99.90
14144;DHT22;7152;48.348;10.980;2022-08-01T05:02:18;18.50;99.90
14144;DHT22;7152;48.348;10.980;2022-08-01T05:04:45;18.50;99.90
14144;DHT22;7152;48.348;10.980;2022-08-01T05:07:12;18.50;99.90
14144;DHT22;7152;48.348;10.980;2022-08-01T05:09:39;18.60;99.90
14144;DHT22;7152;48.348;10.980;2022-08-01T05:12:09;18.60;99.90
14144;DHT22;7152;48.348;10.980;2022-08-01T05:14:35;18.60;99.90
14144;DHT22;7152;48.348;10.980;2022-08-01T05:17:05;18.60;99.90
14144;DHT22;7152;48.348;10.980;2022-08-01T05:19:32;18.70;99.90
14144;DHT22;7152;48.348;10.980;2022-08-01T05:21:59;18.70;99.90
14144;DHT22;7152;48.348;10.980;2022-08-01T05:24:27;18.70;99.90
14144;DHT22;7152;48.348;10.980;2022-08-01T05:26:55;18.70;99.90
14144;DHT22;7152;48.348;10.980;2022-08-01T05:29:21;18.80;99.90
14144;DHT22;7152;48.348;10.980;2022-08-01T05:31:47;18.80;99.90
14144;DHT22;7152;48.348;10.980;2022-08-01T05:34:13;18.80;99.90
14144;DHT22;7152;48.348;10.980;2022-08-01T05:36:38;18.90;99.90
14144;DHT22;7152;48.348;10.980;2022-08-01T05:39:04;18.90;99.90
14144;DHT22;7152;48.348;10.980;2022-08-01T05:41:30;18.90;99.90
14144;DHT22;7152;48.348;10.980;2022-08-01T05:43:56;18.90;99.90
14144;DHT22;7152;48.348;10.980;2022-08-01T05:46:21;19.00;99.90
14144;DHT22;7152;48.348;10.980;2022-08-01T05:48:47;19.00;99.90
14144;DHT22;7152;48.348;10.980;2022-08-01T05:51:13;19.10;99.90
14144;DHT22;7152;48.348;10.980;2022-08-01T05:53:38;19.10;99.90
14144;DHT22;7152;48.348;10.980;2022-08-01T05:56:04;19.20;99.90
14144;DHT22;7152;48.348;10.980;2022-08-01T05:58:30;19.30;99.90
14144;DHT22;7152;48.348;10.980;2022-08-01T06:00:57;19.30;99.90
14144;DHT22;7152;48.348;10.980;2022-08-01T06:03:23;19.40;99.90
14144;DHT22;7152;48.348;10.980;2022-08-01T06:05:51;19.40;99.90
14144;DHT22;7152;48.348;10.980;2022-08-01T06:08:17;19.50;99.90
14144;DHT22;7152;48.348;10.980;2022-08-01T06:10:42;19.60;99.90
14144;DHT22;7152;48.348;10.980;2022-08-01T06:13:08;19.60;99.90
14144;DHT22;7152;48.348;10.980;2022-08-01T06:15:34;19.70;99.90
14144;DHT22;7152;48.348;10.980;2022-08-01T06:18:00;19.80;99.90
14144;DHT22;7152;48.348;10.980;2022-08-01T06:20:25;19.80;99.90
14144;DHT22;7152;48.348;10.980;2022-08-01T06:22:51;19.90;99.90
14144;DHT22;7152;48.348;10.980;2022-08-01T06:25:18;20.00;99.90
14144;DHT22;7152;48.348;10.980;2022-08-01T06:27:44;20.10;99.90
14144;DHT22;7152;48.348;10.980;2022-08-01T06:30:10;20.20;99.90
14144;DHT22;7152;48.348;10.980;2022-08-01T06:32:36;20.30;99.90
14144;DHT22;7152;48.348;10.980;2022-08-01T06:35:02;20.40;99.90
14144;DHT22;7152;48.348;10.980;2022-08-01T06:37:29;20.50;99.90
14144;DHT22;7152;48.348;10.980;2022-08-01T06:39:55;20.60;99.90
14144;DHT22;7152;48.348;10.980;2022-08-01T06:42:21;20.70;99.90
14144;DHT22;7152;48.348;10.980;2022-08-01T06:44:47;20.80;99.90
14144;DHT22;7152;48.348;10.980;2022-08-01T06:47:12;20.90;99.90
14144;DHT22;7152;48.348;10.980;2022-08-01T06:49:38;21.00;99.90
14144;DHT22;7152;48.348;10.980;2022-08-01T06:52:04;21.10;99.90
14144;DHT22;7152;48.348;10.980;2022-08-01T06:54:29;21.20;99.90
14144;DHT22;7152;48.348;10.980;2022-08-01T06:56:55;21.30;99.90
14144;DHT22;7152;48.348;10.980;2022-08-01T06:59:21;21.50;99.90
14144;DHT22;7152;48.348;10.980;2022-08-01T07:01:46;21.60;99.90
14144;DHT22;7152;48.348;10.980;2022-08-01T07:04:15;21.70;99.90
14144;DHT22;7152;48.348;10.980;2022-08-01T07:06:40;21.80;99.90
14144;DHT22;7152;48.348;10.980;2022-08-01T07:09:06;21.90;99.90
14144;DHT22;7152;48.348;10.980;2022-08-01T07:11:32;22.10;99.90
14144;DHT22;7152;48.348;10.980;2022-08-01T07:13:57;22.10;99.90
14144;DHT22;7152;48.348;10.980;2022-08-01T07:16:24;22.20;99.90
14144;DHT22;7152;48.348;10.980;2022-08-01T07:18:50;22.40;99.90
14144;DHT22;7152;48.348;10.980;2022-08-01T07:21:16;22.50;99.90
14144;DHT22;7152;48.348;10.980;2022-08-01T07:23:41;22.60;99.90
14144;DHT22;7152;48.348;10.980;2022-08-01T07:26:07;22.60;99.90
14144;DHT22;7152;48.348;10.980;2022-08-01T07:28:33;22.70;99.90
14144;DHT22;7152;48.348;10.980;2022-08-01T07:30:58;22.70;99.90
14144;DHT22;7152;48.348;10.980;2022-08-01T07:33:24;22.80;99.90
14144;DHT22;7152;48.348;10.980;2022-08-01T07:35:50;22.90;99.90
14144;DHT22;7152;48.348;10.980;2022-08-01T07:38:15;22.90;99.90
14144;DHT22;7152;48.348;10.980;2022-08-01T07:40:43;22.80;99.90
14144;DHT22;7152;48.348;10.980;2022-08-01T07:43:09;22.80;99.90
14144;DHT22;7152;48.348;10.980;2022-08-01T07:45:34;22.70;99.90
14144;DHT22;7152;48.348;10.980;2022-08-01T07:48:07;22.70;99.90
14144;DHT22;7152;48.348;10.980;2022-08-01T07:50:33;22.70;99.90
14144;DHT22;7152;48.348;10.980;2022-08-01T07:52:59;22.70;99.90
14144;DHT22;7152;48.348;10.980;2022-08-01T07:55:25;22.70;99.90
14144;DHT22;7152;48.348;10.980;2022-08-01T07:57:51;22.60;99.90
14144;DHT22;7152;48.348;10.980;2022-08-01T08:00:17;22.60;99.90
14144;DHT22;7152;48.348;10.980;2022-08-01T08:02:44;22.70;99.90
14144;DHT22;7152;48.348;10.980;2022-08-01T08:05:10;22.70;99.90
14144;DHT22;7152;48.348;10.980;2022-08-01T08:07:36;22.70;99.90
14144;DHT22;7152;48.348;10.980;2022-08-01T08:10:03;22.70;99.90
14144;DHT22;7152;48.348;10.980;2022-08-01T08:12:29;22.80;99.90
14144;DHT22;7152;48.348;10.980;2022-08-01T08:14:54;22.80;99.90
14144;DHT22;7152;48.348;10.980;2022-08-01T08:17:20;22.90;99.90
14144;DHT22;7152;48.348;10.980;2022-08-01T08:19:46;22.90;99.90
14144;DHT22;7152;48.348;10.980;2022-08-01T08:22:11;23.00;99.90
14144;DHT22;7152;48.348;10.980;2022-08-01T08:24:37;23.00;99.90
14144;DHT22;7152;48.348;10.980;2022-08-01T08:27:03;23.10;99.90
14144;DHT22;7152;48.348;10.980;2022-08-01T08:29:30;23.10;99.90
14144;DHT22;7152;48.348;10.980;2022-08-01T08:31:58;23.20;99.90
14144;DHT22;7152;48.348;10.980;2022-08-01T08:34:25;23.20;99.90
14144;DHT22;7152;48.348;10.980;2022-08-01T08:36:51;23.30;99.90
14144;DHT22;7152;48.348;10.980;2022-08-01T08:39:17;23.30;99.90
14144;DHT22;7152;48.348;10.980;2022-08-01T08:41:43;23.40;99.90
14144;DHT22;7152;48.348;10.980;2022-08-01T08:44:09;23.50;99.90
14144;DHT22;7152;48.348;10.980;2022-08-01T08:46:43;23.60;99.90
14144;DHT22;7152;48.348;10.980;2022-08-01T08:49:11;23.60;99.90
14144;DHT22;7152;48.348;10.980;2022-08-01T08:51:39;23.70;99.90
14144;DHT22;7152;48.348;10.980;2022-08-01T08:54:06;23.70;99.90
14144;DHT22;7152;48.348;10.980;2022-08-01T08:56:34;23.80;99.90
14144;DHT22;7152;48.348;10.980;2022-08-01T08:59:01;23.80;99.90
14144;DHT22;7152;48.348;10.980;2022-08-01T09:01:27;23.90;99.90
14144;DHT22;7152;48.348;10.980;2022-08-01T09:03:53;24.00;99.90
14144;DHT22;7152;48.348;10.980;2022-08-01T09:06:19;24.00;99.90
14144;DHT22;7152;48.348;10.980;2022-08-01T09:08:45;24.10;99.90
14144;DHT22;7152;48.348;10.980;2022-08-01T09:11:11;24.10;99.90
14144;DHT22;7152;48.348;10.980;2022-08-01T09:13:40;24.20;99.90
14144;DHT22;7152;48.348;10.980;2022-08-01T09:16:06;24.30;99.90
14144;DHT22;7152;48.348;10.980;2022-08-01T09:18:33;24.40;99.90
14144;DHT22;7152;48.348;10.980;2022-08-01T09:21:21;24.50;99.90
14144;DHT22;7152;48.348;10.980;2022-08-01T09:23:54;24.60;99.90
14144;DHT22;7152;48.348;10.980;2022-08-01T09:26:29;24.80;99.90
14144;DHT22;7152;48.348;10.980;2022-08-01T09:28:55;24.90;99.90
14144;DHT22;7152;48.348;10.980;2022-08-01T09:31:21;25.00;99.90
14144;DHT22;7152;48.348;10.980;2022-08-01T09:36:15;25.30;99.90
14144;DHT22;7152;48.348;10.980;2022-08-01T09:38:41;25.50;99.90
14144;DHT22;7152;48.348;10.980;2022-08-01T09:41:07;25.50;99.90
14144;DHT22;7152;48.348;10.980;2022-08-01T09:43:33;25.70;99.90
14144;DHT22;7152;48.348;10.980;2022-08-01T09:46:03;25.80;99.90
14144;DHT22;7152;48.348;10.980;2022-08-01T09:48:29;25.90;99.90
14144;DHT22;7152;48.348;10.980;2022-08-01T09:50:58;26.10;99.90
14144;DHT22;7152;48.348;10.980;2022-08-01T09:53:24;26.30;99.90
14144;DHT22;7152;48.348;10.980;2022-08-01T09:55:50;26.50;99.90
14144;DHT22;7152;48.348;10.980;2022-08-01T09:58:18;26.60;99.90
14144;DHT22;7152;48.348;10.980;2022-08-01T10:00:58;26.70;99.90
14144;DHT22;7152;48.348;10.980;2022-08-01T10:03:26;26.60;99.90
14144;DHT22;7152;48.348;10.980;2022-08-01T10:05:52;26.80;99.90
14144;DHT22;7152;48.348;10.980;2022-08-01T10:08:22;27.10;99.90
14144;DHT22;7152;48.348;10.980;2022-08-01T10:11:16;27.40;99.90
14144;DHT22;7152;48.348;10.980;2022-08-01T10:13:42;27.40;99.90
14144;DHT22;7152;48.348;10.980;2022-08-01T10:16:09;27.10;99.90
14144;DHT22;7152;48.348;10.980;2022-08-01T10:18:35;27.10;99.90
14144;DHT22;7152;48.348;10.980;2022-08-01T10:21:03;26.90;99.90
14144;DHT22;7152;48.348;10.980;2022-08-01T10:23:34;26.70;99.90
14144;DHT22;7152;48.348;10.980;2022-08-01T10:26:01;26.60;99.90
14144;DHT22;7152;48.348;10.980;2022-08-01T10:28:29;26.50;99.90
14144;DHT22;7152;48.348;10.980;2022-08-01T10:30:56;26.70;99.90
14144;DHT22;7152;48.348;10.980;2022-08-01T10:33:22;26.80;99.90
14144;DHT22;7152;48.348;10.980;2022-08-01T10:35:48;27.20;99.90
14144;DHT22;7152;48.348;10.980;2022-08-01T10:38:15;27.70;99.90
14144;DHT22;7152;48.348;10.980;2022-08-01T10:40:43;28.00;99.90
14144;DHT22;7152;48.348;10.980;2022-08-01T10:43:10;28.30;99.90
14144;DHT22;7152;48.348;10.980;2022-08-01T10:45:36;28.20;99.90
14144;DHT22;7152;48.348;10.980;2022-08-01T10:48:26;28.20;99.90
14144;DHT22;7152;48.348;10.980;2022-08-01T10:51:01;28.30;99.90
14144;DHT22;7152;48.348;10.980;2022-08-01T10:53:28;28.70;99.90
14144;DHT22;7152;48.348;10.980;2022-08-01T10:58:34;29.00;99.90
14144;DHT22;7152;48.348;10.980;2022-08-01T11:01:24;29.10;99.90
14144;DHT22;7152;48.348;10.980;2022-08-01T11:09:20;30.50;98.30
14144;DHT22;7152;48.348;10.980;2022-08-01T11:20:23;32.10;94.80
14144;DHT22;7152;48.348;10.980;2022-08-01T11:30:47;30.80;92.60
14144;DHT22;7152;48.348;10.980;2022-08-01T11:33:15;30.20;92.30
14144;DHT22;7152;48.348;10.980;2022-08-01T11:38:49;28.90;92.60
14144;DHT22;7152;48.348;10.980;2022-08-01T11:41:34;28.40;92.90
14144;DHT22;7152;48.348;10.980;2022-08-01T11:44:09;27.90;93.20
14144;DHT22;7152;48.348;10.980;2022-08-01T11:49:45;27.40;94.50
14144;DHT22;7152;48.348;10.980;2022-08-01T11:52:25;27.20;95.00
14144;DHT22;7152;48.348;10.980;2022-08-01T11:54:57;27.20;95.40
14144;DHT22;7152;48.348;10.980;2022-08-01T11:57:30;27.20;95.90
14144;DHT22;7152;48.348;10.980;2022-08-01T11:59:59;27.30;96.20
14144;DHT22;7152;48.348;10.980;2022-08-01T12:02:27;27.40;96.80
14144;DHT22;7152;48.348;10.980;2022-08-01T12:04:56;27.40;97.20
14144;DHT22;7152;48.348;10.980;2022-08-01T12:07:24;27.40;96.80
14144;DHT22;7152;48.348;10.980;2022-08-01T12:10:08;27.50;97.10
14144;DHT22;7152;48.348;10.980;2022-08-01T12:12:36;28.20;96.70
14144;DHT22;7152;48.348;10.980;2022-08-01T12:15:07;29.30;96.70
14144;DHT22;7152;48.348;10.980;2022-08-01T12:17:34;30.10;96.10
14144;DHT22;7152;48.348;10.980;2022-08-01T12:20:02;29.90;95.70
14144;DHT22;7152;48.348;10.980;2022-08-01T12:22:28;29.70;95.30
14144;DHT22;7152;48.348;10.980;2022-08-01T12:24:54;29.50;95.20
14144;DHT22;7152;48.348;10.980;2022-08-01T12:27:29;29.30;95.20
14144;DHT22;7152;48.348;10.980;2022-08-01T12:29:57;29.20;94.70
14144;DHT22;7152;48.348;10.980;2022-08-01T12:32:28;29.10;94.80
14144;DHT22;7152;48.348;10.980;2022-08-01T12:35:00;29.10;95.10
14144;DHT22;7152;48.348;10.980;2022-08-01T12:37:26;29.10;94.70
14144;DHT22;7152;48.348;10.980;2022-08-01T12:39:52;29.10;94.60
14144;DHT22;7152;48.348;10.980;2022-08-01T12:42:18;29.00;94.30
14144;DHT22;7152;48.348;10.980;2022-08-01T12:44:47;28.90;94.60
14144;DHT22;7152;48.348;10.980;2022-08-01T12:47:14;28.80;94.60
14144;DHT22;7152;48.348;10.980;2022-08-01T12:49:42;28.70;94.70
14144;DHT22;7152;48.348;10.980;2022-08-01T12:52:08;28.70;94.90
14144;DHT22;7152;48.348;10.980;2022-08-01T12:57:25;28.60;94.90
14144;DHT22;7152;48.348;10.980;2022-08-01T13:00:08;28.70;95.10
14144;DHT22;7152;48.348;10.980;2022-08-01T13:02:35;29.40;95.00
14144;DHT22;7152;48.348;10.980;2022-08-01T13:05:04;29.80;94.50
14144;DHT22;7152;48.348;10.980;2022-08-01T13:07:55;31.10;94.00
14144;DHT22;7152;48.348;10.980;2022-08-01T13:10:26;31.70;92.70
14144;DHT22;7152;48.348;10.980;2022-08-01T13:12:54;32.90;91.10
14144;DHT22;7152;48.348;10.980;2022-08-01T13:15:31;33.90;90.80
14144;DHT22;7152;48.348;10.980;2022-08-01T13:17:59;34.70;87.00
14144;DHT22;7152;48.348;10.980;2022-08-01T13:20:33;35.50;88.30
14144;DHT22;7152;48.348;10.980;2022-08-01T13:25:49;37.50;83.90
14144;DHT22;7152;48.348;10.980;2022-08-01T13:28:21;38.20;80.30
14144;DHT22;7152;48.348;10.980;2022-08-01T13:31:03;37.70;79.00
14144;DHT22;7152;48.348;10.980;2022-08-01T13:33:49;36.70;77.30
14144;DHT22;7152;48.348;10.980;2022-08-01T13:36:14;35.60;76.80
14144;DHT22;7152;48.348;10.980;2022-08-01T13:38:41;34.30;77.50
14144;DHT22;7152;48.348;10.980;2022-08-01T13:41:26;33.20;78.80
14144;DHT22;7152;48.348;10.980;2022-08-01T13:43:52;32.10;80.60
14144;DHT22;7152;48.348;10.980;2022-08-01T13:46:18;31.40;81.60
14144;DHT22;7152;48.348;10.980;2022-08-01T13:48:44;30.70;82.50
14144;DHT22;7152;48.348;10.980;2022-08-01T13:51:11;30.10;82.80
14144;DHT22;7152;48.348;10.980;2022-08-01T13:53:36;29.70;84.60
14144;DHT22;7152;48.348;10.980;2022-08-01T13:56:02;28.90;90.60
14144;DHT22;7152;48.348;10.980;2022-08-01T13:58:28;27.90;93.80
14144;DHT22;7152;48.348;10.980;2022-08-01T14:00:55;26.80;96.40
14144;DHT22;7152;48.348;10.980;2022-08-01T14:03:21;25.80;99.90
14144;DHT22;7152;48.348;10.980;2022-08-01T14:05:47;24.90;99.90
14144;DHT22;7152;48.348;10.980;2022-08-01T14:08:12;24.10;99.90
14144;DHT22;7152;48.348;10.980;2022-08-01T14:10:38;23.50;99.90
14144;DHT22;7152;48.348;10.980;2022-08-01T14:13:04;22.90;99.90
14144;DHT22;7152;48.348;10.980;2022-08-01T14:15:31;22.30;99.90
14144;DHT22;7152;48.348;10.980;2022-08-01T14:17:57;21.70;99.90
14144;DHT22;7152;48.348;10.980;2022-08-01T14:20:23;21.20;99.90
14144;DHT22;7152;48.348;10.980;2022-08-01T14:22:49;20.70;99.90
14144;DHT22;7152;48.348;10.980;2022-08-01T14:25:14;20.40;99.90
14144;DHT22;7152;48.348;10.980;2022-08-01T14:27:40;20.10;99.90
14144;DHT22;7152;48.348;10.980;2022-08-01T14:30:07;20.00;99.90
14144;DHT22;7152;48.348;10.980;2022-08-01T14:32:34;20.00;99.90
14144;DHT22;7152;48.348;10.980;2022-08-01T14:35:04;20.00;99.90
14144;DHT22;7152;48.348;10.980;2022-08-01T14:37:30;20.10;99.90
14144;DHT22;7152;48.348;10.980;2022-08-01T14:39:56;20.20;99.90
14144;DHT22;7152;48.348;10.980;2022-08-01T14:42:23;20.30;99.90
14144;DHT22;7152;48.348;10.980;2022-08-01T14:44:48;20.50;99.90
14144;DHT22;7152;48.348;10.980;2022-08-01T14:47:14;20.60;99.90
14144;DHT22;7152;48.348;10.980;2022-08-01T14:49:39;20.70;99.90
14144;DHT22;7152;48.348;10.980;2022-08-01T14:52:06;20.80;99.90
14144;DHT22;7152;48.348;10.980;2022-08-01T14:54:31;21.00;99.90
14144;DHT22;7152;48.348;10.980;2022-08-01T14:56:57;21.20;99.90
14144;DHT22;7152;48.348;10.980;2022-08-01T14:59:22;21.30;99.90
14144;DHT22;7152;48.348;10.980;2022-08-01T15:01:48;21.40;99.90
14144;DHT22;7152;48.348;10.980;2022-08-01T15:04:14;21.60;99.90
14144;DHT22;7152;48.348;10.980;2022-08-01T15:06:39;21.70;99.90
14144;DHT22;7152;48.348;10.980;2022-08-01T15:09:05;21.90;99.90
14144;DHT22;7152;48.348;10.980;2022-08-01T15:11:31;22.00;99.90
14144;DHT22;7152;48.348;10.980;2022-08-01T15:13:57;22.00;99.90
14144;DHT22;7152;48.348;10.980;2022-08-01T15:16:41;22.00;99.90
14144;DHT22;7152;48.348;10.980;2022-08-01T15:19:08;22.00;99.90
14144;DHT22;7152;48.348;10.980;2022-08-01T15:21:33;22.00;99.90
14144;DHT22;7152;48.348;10.980;2022-08-01T15:23:59;21.90;99.90
14144;DHT22;7152;48.348;10.980;2022-08-01T15:26:25;21.90;99.90
14144;DHT22;7152;48.348;10.980;2022-08-01T15:28:50;21.90;99.90
14144;DHT22;7152;48.348;10.980;2022-08-01T15:31:17;21.90;99.90
14144;DHT22;7152;48.348;10.980;2022-08-01T15:33:42;21.90;99.90
14144;DHT22;7152;48.348;10.980;2022-08-01T15:36:08;22.00;99.90
14144;DHT22;7152;48.348;10.980;2022-08-01T15:38:34;22.00;99.90
14144;DHT22;7152;48.348;10.980;2022-08-01T15:40:59;22.00;99.90
14144;DHT22;7152;48.348;10.980;2022-08-01T15:43:25;22.10;99.90
14144;DHT22;7152;48.348;10.980;2022-08-01T15:45:50;22.20;99.90
14144;DHT22;7152;48.348;10.980;2022-08-01T15:48:16;22.30;99.90
14144;DHT22;7152;48.348;10.980;2022-08-01T15:50:42;22.40;99.90
14144;DHT22;7152;48.348;10.980;2022-08-01T15:53:08;22.60;99.90
14144;DHT22;7152;48.348;10.980;2022-08-01T15:55:37;22.70;99.90
14144;DHT22;7152;48.348;10.980;2022-08-01T15:58:03;22.60;99.90
14144;DHT22;7152;48.348;10.980;2022-08-01T16:00:30;22.60;99.90
14144;DHT22;7152;48.348;10.980;2022-08-01T16:02:55;22.60;99.90
14144;DHT22;7152;48.348;10.980;2022-08-01T16:05:22;22.50;99.90
14144;DHT22;7152;48.348;10.980;2022-08-01T16:07:48;22.50;99.90
14144;DHT22;7152;48.348;10.980;2022-08-01T16:10:14;22.50;99.90
14144;DHT22;7152;48.348;10.980;2022-08-01T16:12:39;22.60;99.90
14144;DHT22;7152;48.348;10.980;2022-08-01T16:15:05;23.00;99.90
14144;DHT22;7152;48.348;10.980;2022-08-01T16:17:31;23.80;99.90
14144;DHT22;7152;48.348;10.980;2022-08-01T16:19:57;25.40;99.90
14144;DHT22;7152;48.348;10.980;2022-08-01T16:22:22;26.50;99.90
14144;DHT22;7152;48.348;10.980;2022-08-01T16:24:48;27.00;99.90
14144;DHT22;7152;48.348;10.980;2022-08-01T16:27:14;27.20;99.90
14144;DHT22;7152;48.348;10.980;2022-08-01T16:29:40;27.00;99.90
14144;DHT22;7152;48.348;10.980;2022-08-01T16:32:05;26.80;99.90